首页
METAR-TAF:

METAR-TAF

机场 :

Peterborough, 安大略省, 加拿大

纬度: 44-14N, 经度: 078-22W, 海拔: 191米

当前天气观测

该预报发布于49分钟前的19:00 UTC
风速14节,风向西,有时为20节阵风
温度 -4°C
湿度 49%
气压 1027 hPa
能見度: 14.5公里
少量云层高于4900英尺

METAR: CYPQ 191900Z AUTO 28014G20KT 9SM FEW049 M04/M13 A3034 RMK SLP286

时间: 14:49 (19:49 UTC)

预报

该预报发布于11分钟前的19:38 UTC
预报有效从19日的 20点(UTC)到 20日的 03点(UTC)
风速12节,风向西,有时为22节阵风
能見度: 10公里
散云层高于5000英尺
短暂存在
从 19日的 20点(UTC)到 20日的 03点(UTC)
多云层高于5000英尺
成为
从 19日的 22点(UTC)到 19日的 24点(UTC)
风速10节,风向西

TAF: CYPQ 191938Z 1920/2003 28012G22KT P6SM SCT050 TEMPO 1920/2003 BKN050 BECMG 1922/1924 28010KT RMK FCST BASED ON AUTO OBS. NXT FCST WILL BE ISSUED AT 201045Z

超过4000个机场的气象观测和天气预报(METAR&TAF报告)。

可查询的气象台以黄色和红色小点在地图上表示。

将鼠标移到小点上方,可查看气象台名称。

然后点击查看天气观测和预报。

如需切换地图:点击带黑十字的绿色按钮放大地图;点击带横线的绿色按钮缩小地图;或者点击绿色箭头查看邻近地区的地图。


METAR-TAF: